Time;durP1;ratioP1;P1;durP2;ratioP2;P2;SDS_P1;SDS_P2;PMS_P1;PMS_P2;Temp;Humidity;BMP_temperature;BMP_pressure;BME280_temperature;BME280_humidity;BME280_pressure;Samples;Min_cycle;Max_cycle;Signal;HPM_P1;HPM_P2
2023/05/14 00:01:01;;;;;;;;;;;7.90;99.90;;;;;;5021283;28;19918;-87
2023/05/14 00:03:26;;;;;;;;;;;7.90;99.90;;;;;;5020407;28;20418;-88
2023/05/14 00:06:26;;;;;;;;;;;8.00;99.90;;;;;;5028071;28;19928;-88
2023/05/14 00:08:52;;;;;;;;;;;8.00;99.90;;;;;;5028191;28;20001;-87
2023/05/14 00:11:17;;;;;;;;;;;8.00;99.90;;;;;;5010302;28;19953;-88
2023/05/14 00:13:43;;;;;;;;;;;8.00;99.90;;;;;;5026788;28;19991;-87
2023/05/14 00:19:13;;;;;;;;;;;7.90;99.90;;;;;;5018733;28;19909;-87
2023/05/14 00:21:38;;;;;;;;;;;8.00;99.90;;;;;;5022610;28;19988;-87
2023/05/14 00:24:04;;;;;;;;;;;8.00;99.90;;;;;;5036238;28;19910;-87
2023/05/14 00:26:30;;;;;;;;;;;8.10;99.90;;;;;;5024084;28;20357;-88
2023/05/14 00:28:55;;;;;;;;;;;8.10;99.90;;;;;;5033077;28;19913;-88
2023/05/14 00:31:21;;;;;;;;;;;8.00;99.90;;;;;;5016994;28;19909;-88
2023/05/14 00:33:47;;;;;;;;;;;7.90;99.90;;;;;;5032642;28;19920;-88
2023/05/14 00:36:12;;;;;;;;;;;7.90;99.90;;;;;;5018187;28;19906;-88
2023/05/14 00:38:38;;;;;;;;;;;7.80;99.90;;;;;;5043172;28;19916;-88
2023/05/14 00:41:03;;;;;;;;;;;7.70;99.90;;;;;;5031243;28;19904;-88
2023/05/14 00:43:32;;;;;;;;;;;7.70;99.90;;;;;;5030516;28;19916;-89
2023/05/14 00:45:57;;;;;;;;;;;7.70;99.90;;;;;;5047135;28;19909;-88
2023/05/14 00:48:23;;;;;;;;;;;7.70;99.90;;;;;;5007131;28;20364;-89
2023/05/14 00:50:49;;;;;;;;;;;7.80;99.90;;;;;;5024756;28;20377;-88
2023/05/14 00:53:15;;;;;;;;;;;7.80;99.90;;;;;;5027388;28;19928;-88
2023/05/14 00:55:41;;;;;;;;;;;7.70;99.90;;;;;;5027269;28;19912;-88
2023/05/14 00:58:09;;;;;;;;;;;7.70;99.90;;;;;;5009283;28;19944;-88
2023/05/14 01:00:35;;;;;;;;;;;7.60;99.90;;;;;;5027992;28;19909;-88
2023/05/14 01:03:02;;;;;;;;;;;7.60;99.90;;;;;;5030221;28;19908;-87
2023/05/14 01:05:47;;;;;;;;;;;7.50;99.90;;;;;;5027280;28;19916;-88
2023/05/14 01:08:28;;;;;;;;;;;7.50;99.90;;;;;;5024581;28;19914;-88
2023/05/14 01:11:11;;;;;;;;;;;7.50;99.90;;;;;;5033826;28;19909;-88
2023/05/14 01:13:44;;;;;;;;;;;7.50;99.90;;;;;;5038388;28;19924;-88
2023/05/14 01:16:11;;;;;;;;;;;7.40;99.90;;;;;;5030214;28;19910;-88
2023/05/14 01:18:37;;;;;;;;;;;7.30;99.90;;;;;;5023647;28;19916;-89
2023/05/14 01:21:03;;;;;;;;;;;7.40;99.90;;;;;;5017287;28;19909;-87
2023/05/14 01:23:29;;;;;;;;;;;7.30;99.90;;;;;;5023138;28;19916;-88
2023/05/14 01:25:55;;;;;;;;;;;7.30;99.90;;;;;;5024865;28;20368;-87
2023/05/14 01:28:27;;;;;;;;;;;7.30;99.90;;;;;;5028817;28;19960;-87
2023/05/14 01:30:57;;;;;;;;;;;7.40;99.90;;;;;;5046042;28;20376;-88
2023/05/14 01:33:24;;;;;;;;;;;7.30;99.90;;;;;;5022661;28;20317;-88
2023/05/14 01:35:52;;;;;;;;;;;7.30;99.90;;;;;;5033625;28;24100;-88
2023/05/14 01:38:19;;;;;;;;;;;7.30;99.90;;;;;;5034491;28;19916;-88
2023/05/14 01:40:45;;;;;;;;;;;7.30;99.90;;;;;;5020056;28;19917;-87
2023/05/14 01:43:36;;;;;;;;;;;7.20;99.90;;;;;;5026604;28;20629;-88
2023/05/14 01:46:03;;;;;;;;;;;7.20;99.90;;;;;;5009855;28;19924;-88
2023/05/14 01:48:29;;;;;;;;;;;7.10;99.90;;;;;;5028336;28;19909;-88
2023/05/14 01:50:55;;;;;;;;;;;7.00;99.90;;;;;;5023210;28;19920;-87
2023/05/14 01:53:20;;;;;;;;;;;7.10;99.90;;;;;;5024496;28;20365;-88
2023/05/14 01:55:46;;;;;;;;;;;7.10;99.90;;;;;;5023030;28;19921;-88
2023/05/14 01:58:12;;;;;;;;;;;7.10;99.90;;;;;;5034612;28;20350;-88
2023/05/14 02:00:38;;;;;;;;;;;7.20;99.90;;;;;;5011916;28;19910;-88
2023/05/14 02:03:04;;;;;;;;;;;7.30;99.90;;;;;;5020053;28;19909;-87
2023/05/14 02:05:29;;;;;;;;;;;7.40;99.90;;;;;;5023278;28;19909;-88
2023/05/14 02:07:55;;;;;;;;;;;7.40;99.90;;;;;;5039581;28;19916;-88
2023/05/14 02:10:21;;;;;;;;;;;7.40;99.90;;;;;;5028082;28;19909;-89
2023/05/14 02:13:13;;;;;;;;;;;7.40;99.90;;;;;;5033339;28;25113;-89
2023/05/14 02:15:39;;;;;;;;;;;7.40;99.90;;;;;;5029799;28;19909;-88
2023/05/14 02:18:04;;;;;;;;;;;7.30;99.90;;;;;;5032395;28;19909;-88
2023/05/14 02:20:31;;;;;;;;;;;7.30;99.90;;;;;;5018692;28;19916;-88
2023/05/14 02:22:56;;;;;;;;;;;7.20;99.90;;;;;;5019240;28;19912;-88
2023/05/14 02:25:22;;;;;;;;;;;7.10;99.90;;;;;;5018068;28;19909;-86
2023/05/14 02:27:48;;;;;;;;;;;7.00;99.90;;;;;;5034029;28;20385;-88
2023/05/14 02:30:13;;;;;;;;;;;7.00;99.90;;;;;;5022337;28;19917;-88
2023/05/14 02:32:39;;;;;;;;;;;7.00;99.90;;;;;;5018026;28;19913;-88
2023/05/14 02:35:05;;;;;;;;;;;7.00;99.90;;;;;;5030346;28;20046;-86
2023/05/14 02:37:31;;;;;;;;;;;6.90;99.90;;;;;;5022174;28;19909;-88
2023/05/14 02:39:56;;;;;;;;;;;6.90;99.90;;;;;;5030782;28;19913;-88
2023/05/14 02:42:22;;;;;;;;;;;6.80;99.90;;;;;;5036641;28;19910;-88
2023/05/14 02:44:47;;;;;;;;;;;6.90;99.90;;;;;;5018296;28;19992;-88
2023/05/14 02:47:13;;;;;;;;;;;6.90;99.90;;;;;;5029614;28;19914;-88
2023/05/14 02:53:07;;;;;;;;;;;6.90;99.90;;;;;;5032888;28;20110;-88
2023/05/14 02:55:33;;;;;;;;;;;6.90;99.90;;;;;;5022422;28;20289;-88
2023/05/14 02:58:04;;;;;;;;;;;6.90;99.90;;;;;;5031402;28;19915;-88
2023/05/14 03:00:32;;;;;;;;;;;6.90;99.90;;;;;;5022805;28;19960;-89
2023/05/14 03:02:58;;;;;;;;;;;7.00;99.90;;;;;;5021467;28;19963;-89
2023/05/14 03:05:24;;;;;;;;;;;7.00;99.90;;;;;;5030764;28;19913;-88
2023/05/14 03:07:50;;;;;;;;;;;7.00;99.90;;;;;;5033264;28;19909;-88
2023/05/14 03:10:16;;;;;;;;;;;6.90;99.90;;;;;;5035176;28;19920;-88
2023/05/14 03:12:41;;;;;;;;;;;6.80;99.90;;;;;;5017371;28;20357;-88
2023/05/14 03:15:07;;;;;;;;;;;6.70;99.90;;;;;;5019722;28;19964;-88
2023/05/14 03:17:33;;;;;;;;;;;6.70;99.90;;;;;;5037041;28;19917;-88
2023/05/14 03:19:58;;;;;;;;;;;6.60;99.90;;;;;;5016451;28;20329;-88
2023/05/14 03:22:25;;;;;;;;;;;6.60;99.90;;;;;;5033624;28;19916;-88
2023/05/14 03:24:51;;;;;;;;;;;6.50;99.90;;;;;;5033237;28;19909;-88
2023/05/14 03:27:16;;;;;;;;;;;6.60;99.90;;;;;;5033317;28;19909;-87
2023/05/14 03:33:11;;;;;;;;;;;6.70;99.90;;;;;;5033661;28;19927;-87
2023/05/14 03:35:36;;;;;;;;;;;6.90;99.90;;;;;;5035213;28;19916;-88
2023/05/14 03:38:02;;;;;;;;;;;7.00;99.90;;;;;;5020153;28;19909;-88
2023/05/14 03:40:27;;;;;;;;;;;6.90;99.90;;;;;;5028427;28;19909;-88
2023/05/14 03:42:53;;;;;;;;;;;6.90;99.90;;;;;;5025857;28;19909;-90
2023/05/14 03:45:19;;;;;;;;;;;6.80;99.90;;;;;;5037933;28;19909;-90
2023/05/14 03:47:44;;;;;;;;;;;6.80;99.90;;;;;;5030509;28;19977;-90
2023/05/14 03:50:10;;;;;;;;;;;6.80;99.90;;;;;;5031709;28;19909;-89
2023/05/14 03:52:36;;;;;;;;;;;6.80;99.90;;;;;;5017935;28;20280;-90
2023/05/14 03:55:02;;;;;;;;;;;6.90;99.90;;;;;;5035527;28;20378;-90
2023/05/14 03:57:28;;;;;;;;;;;6.80;99.90;;;;;;5019891;28;19936;-90
2023/05/14 03:59:55;;;;;;;;;;;6.80;99.90;;;;;;5045833;28;19913;-90
2023/05/14 04:02:20;;;;;;;;;;;6.80;99.90;;;;;;5029798;28;19909;-90
2023/05/14 04:04:46;;;;;;;;;;;6.80;99.90;;;;;;5038408;28;20288;-90
2023/05/14 04:07:11;;;;;;;;;;;6.90;99.90;;;;;;5022926;28;19917;-90
2023/05/14 04:09:37;;;;;;;;;;;7.00;99.90;;;;;;5030146;28;20269;-89
2023/05/14 04:12:03;;;;;;;;;;;7.00;99.90;;;;;;5025126;28;19960;-90
2023/05/14 04:14:29;;;;;;;;;;;7.10;99.90;;;;;;5020547;28;20412;-90
2023/05/14 04:16:57;;;;;;;;;;;7.20;99.90;;;;;;5019878;28;20043;-90
2023/05/14 04:19:23;;;;;;;;;;;7.20;99.90;;;;;;5020237;28;19913;-91
2023/05/14 04:21:49;;;;;;;;;;;7.30;99.90;;;;;;5037022;28;19909;-90
2023/05/14 04:24:15;;;;;;;;;;;7.40;99.90;;;;;;5031133;28;20011;-90
2023/05/14 04:26:41;;;;;;;;;;;7.40;99.90;;;;;;5035964;28;19971;-90
2023/05/14 04:29:06;;;;;;;;;;;7.50;99.90;;;;;;5032652;28;19912;-89
2023/05/14 04:31:32;;;;;;;;;;;7.50;99.90;;;;;;5045280;28;19980;-90
2023/05/14 04:33:58;;;;;;;;;;;7.70;99.90;;;;;;5038009;28;19921;-90
2023/05/14 04:36:23;;;;;;;;;;;7.70;99.90;;;;;;5024435;28;19909;-90
2023/05/14 04:38:49;;;;;;;;;;;7.80;99.90;;;;;;5040689;28;19897;-90
2023/05/14 04:41:15;;;;;;;;;;;7.90;99.90;;;;;;5019064;28;19913;-90
2023/05/14 04:43:40;;;;;;;;;;;7.90;99.90;;;;;;5035647;28;19909;-90
2023/05/14 04:46:08;;;;;;;;;;;7.80;99.90;;;;;;5033149;28;19926;-89
2023/05/14 04:48:55;;;;;;;;;;;7.90;99.90;;;;;;5041127;28;20563;-90
2023/05/14 04:51:21;;;;;;;;;;;7.90;99.90;;;;;;5022754;28;19917;-90
2023/05/14 04:53:47;;;;;;;;;;;8.00;99.90;;;;;;5031518;28;19962;-90
2023/05/14 04:59:41;;;;;;;;;;;8.10;99.90;;;;;;5026331;28;19954;-90
2023/05/14 05:02:06;;;;;;;;;;;8.20;99.90;;;;;;5051800;28;20368;-90
2023/05/14 05:04:32;;;;;;;;;;;8.30;99.90;;;;;;5035062;28;19958;-90
2023/05/14 05:06:57;;;;;;;;;;;8.50;99.90;;;;;;5035974;28;19909;-90
2023/05/14 05:09:51;;;;;;;;;;;8.50;99.90;;;;;;5032891;28;19917;-90
2023/05/14 05:12:17;;;;;;;;;;;8.60;99.90;;;;;;5040118;28;19948;-89
2023/05/14 05:14:42;;;;;;;;;;;8.70;99.90;;;;;;5041468;28;19963;-90
2023/05/14 05:17:08;;;;;;;;;;;8.70;99.90;;;;;;5036662;28;19909;-90
2023/05/14 05:19:33;;;;;;;;;;;8.90;99.90;;;;;;5027572;28;20010;-90
2023/05/14 05:21:59;;;;;;;;;;;9.00;99.90;;;;;;5033911;28;20268;-91
2023/05/14 05:24:24;;;;;;;;;;;9.20;99.90;;;;;;5037499;28;20285;-91
2023/05/14 05:26:50;;;;;;;;;;;9.40;99.90;;;;;;5046141;28;19910;-89
2023/05/14 05:29:16;;;;;;;;;;;9.60;99.90;;;;;;5031398;28;19913;-91
2023/05/14 05:31:42;;;;;;;;;;;9.80;99.90;;;;;;5020117;28;19909;-91
2023/05/14 05:34:07;;;;;;;;;;;10.00;99.90;;;;;;5044495;28;19936;-91
2023/05/14 05:36:33;;;;;;;;;;;10.20;99.90;;;;;;5023954;28;19940;-88
2023/05/14 05:38:58;;;;;;;;;;;10.30;99.90;;;;;;5022885;28;19912;-90
2023/05/14 05:41:25;;;;;;;;;;;10.30;99.90;;;;;;5034814;28;19916;-89
2023/05/14 05:43:51;;;;;;;;;;;10.50;99.90;;;;;;5031091;28;19956;-91
2023/05/14 05:46:16;;;;;;;;;;;10.60;99.90;;;;;;5027872;28;19920;-90
2023/05/14 05:48:42;;;;;;;;;;;10.90;99.90;;;;;;5034871;28;19909;-90
2023/05/14 05:51:07;;;;;;;;;;;11.10;99.90;;;;;;5017930;28;19920;-90
2023/05/14 05:53:33;;;;;;;;;;;11.20;99.90;;;;;;5035482;28;19917;-90
2023/05/14 05:55:59;;;;;;;;;;;11.40;99.90;;;;;;5031931;28;19909;-91
2023/05/14 05:58:25;;;;;;;;;;;11.70;99.90;;;;;;5027280;28;19910;-90
2023/05/14 06:00:50;;;;;;;;;;;11.90;99.90;;;;;;5022786;28;19963;-90
2023/05/14 06:03:16;;;;;;;;;;;12.10;99.90;;;;;;5008966;28;19920;-91
2023/05/14 06:05:41;;;;;;;;;;;12.20;99.90;;;;;;5021814;28;19952;-91
2023/05/14 06:08:07;;;;;;;;;;;12.30;99.90;;;;;;5026913;28;19945;-90
2023/05/14 06:10:33;;;;;;;;;;;12.60;99.90;;;;;;5027579;28;19905;-91
2023/05/14 06:12:59;;;;;;;;;;;12.70;99.90;;;;;;5020059;28;19936;-91
2023/05/14 06:15:25;;;;;;;;;;;12.80;99.90;;;;;;5026875;28;19917;-90
2023/05/14 06:17:50;;;;;;;;;;;13.00;99.90;;;;;;5000084;28;19917;-90
2023/05/14 06:20:16;;;;;;;;;;;13.20;99.90;;;;;;5031146;28;20008;-91
2023/05/14 06:22:41;;;;;;;;;;;13.30;99.90;;;;;;5004032;28;19909;-92
2023/05/14 06:25:08;;;;;;;;;;;13.30;99.90;;;;;;5031057;28;19971;-90
2023/05/14 06:27:33;;;;;;;;;;;13.50;99.90;;;;;;5023396;28;19913;-90
2023/05/14 06:29:59;;;;;;;;;;;13.50;99.90;;;;;;5017282;28;19909;-90
2023/05/14 06:32:24;;;;;;;;;;;13.40;99.90;;;;;;5033442;28;20004;-89
2023/05/14 06:34:50;;;;;;;;;;;13.50;99.90;;;;;;5033513;28;19932;-91
2023/05/14 06:37:16;;;;;;;;;;;13.60;99.90;;;;;;5036428;28;19913;-90
2023/05/14 06:39:48;;;;;;;;;;;13.60;99.90;;;;;;5016067;28;19917;-91
2023/05/14 06:42:15;;;;;;;;;;;13.60;99.90;;;;;;5041285;28;20349;-90
2023/05/14 06:44:41;;;;;;;;;;;13.60;99.90;;;;;;5016662;28;19909;-90
2023/05/14 06:47:07;;;;;;;;;;;13.80;99.90;;;;;;5033342;28;24104;-92
2023/05/14 06:49:35;;;;;;;;;;;14.00;99.90;;;;;;5004924;28;19986;-91
2023/05/14 06:52:02;;;;;;;;;;;14.10;99.90;;;;;;5017937;28;19919;-92
2023/05/14 06:54:28;;;;;;;;;;;14.20;99.90;;;;;;5033299;28;19939;-91
2023/05/14 06:56:53;;;;;;;;;;;14.10;99.90;;;;;;5019284;28;20369;-92
2023/05/14 06:59:19;;;;;;;;;;;14.20;99.90;;;;;;5023963;28;19960;-91
2023/05/14 07:01:44;;;;;;;;;;;14.40;99.90;;;;;;5010755;28;20020;-92
2023/05/14 07:04:10;;;;;;;;;;;14.20;99.90;;;;;;5024130;28;20376;-92
2023/05/14 07:06:36;;;;;;;;;;;14.10;99.90;;;;;;5020723;28;19913;-92
2023/05/14 07:09:02;;;;;;;;;;;14.10;99.90;;;;;;5029383;28;24082;-91
2023/05/14 07:11:27;;;;;;;;;;;14.20;99.90;;;;;;5022891;28;20514;-92
2023/05/14 07:13:53;;;;;;;;;;;14.20;99.90;;;;;;5023481;28;20320;-92
2023/05/14 07:16:19;;;;;;;;;;;14.30;99.90;;;;;;5023531;28;19925;-91
2023/05/14 07:18:45;;;;;;;;;;;14.40;99.90;;;;;;5020381;28;19963;-93
2023/05/14 07:21:10;;;;;;;;;;;14.40;99.90;;;;;;5031686;28;20325;-91
2023/05/14 07:23:37;;;;;;;;;;;14.40;99.90;;;;;;5020881;28;20043;-92
2023/05/14 07:26:04;;;;;;;;;;;14.80;99.90;;;;;;5033775;28;20036;-93
2023/05/14 07:28:29;;;;;;;;;;;14.90;99.90;;;;;;5028186;28;19916;-92
2023/05/14 07:30:55;;;;;;;;;;;14.90;99.90;;;;;;5033468;28;20030;-92
2023/05/14 07:33:21;;;;;;;;;;;14.80;99.90;;;;;;5029737;28;20062;-92
2023/05/14 07:35:47;;;;;;;;;;;15.00;99.90;;;;;;5021751;28;20084;-92
2023/05/14 07:38:12;;;;;;;;;;;15.50;99.90;;;;;;5023776;28;20072;-92
2023/05/14 07:40:38;;;;;;;;;;;15.60;99.90;;;;;;5019878;28;20036;-92
2023/05/14 07:43:04;;;;;;;;;;;15.20;99.90;;;;;;5024578;28;20033;-92
2023/05/14 07:45:29;;;;;;;;;;;15.00;99.90;;;;;;5035627;28;20048;-92
2023/05/14 07:47:55;;;;;;;;;;;14.40;99.90;;;;;;5034733;28;20047;-93
2023/05/14 07:50:21;;;;;;;;;;;14.10;99.90;;;;;;5028855;28;20124;-92
2023/05/14 07:52:47;;;;;;;;;;;13.90;99.90;;;;;;5017256;28;20052;-92
2023/05/14 07:55:13;;;;;;;;;;;13.90;99.90;;;;;;5033661;28;20030;-92
2023/05/14 07:57:44;;;;;;;;;;;14.00;99.90;;;;;;5017993;28;20129;-91
2023/05/14 08:00:10;;;;;;;;;;;14.40;99.90;;;;;;5033350;28;20452;-92
2023/05/14 08:02:39;;;;;;;;;;;15.60;99.90;;;;;;5021396;28;20062;-93
2023/05/14 08:05:05;;;;;;;;;;;17.40;99.90;;;;;;5034513;28;19909;-91
2023/05/14 08:07:32;;;;;;;;;;;19.20;99.90;;;;;;5018556;28;19920;-93
2023/05/14 08:09:58;;;;;;;;;;;20.10;99.90;;;;;;5026101;28;19914;-92
2023/05/14 08:12:24;;;;;;;;;;;20.30;99.90;;;;;;5023987;28;20246;-92
2023/05/14 08:14:50;;;;;;;;;;;18.90;99.90;;;;;;5023232;28;19920;-92
2023/05/14 08:17:16;;;;;;;;;;;18.30;99.90;;;;;;5048322;28;19908;-93
2023/05/14 08:19:42;;;;;;;;;;;17.80;99.90;;;;;;5023336;28;20413;-92
2023/05/14 08:22:07;;;;;;;;;;;17.90;99.90;;;;;;5031107;28;19951;-93
2023/05/14 08:24:33;;;;;;;;;;;18.20;99.90;;;;;;5023665;28;19931;-93
2023/05/14 08:26:59;;;;;;;;;;;18.50;99.90;;;;;;5031510;28;19909;-92
2023/05/14 08:29:25;;;;;;;;;;;19.10;99.90;;;;;;5034863;28;19897;-93
2023/05/14 08:31:50;;;;;;;;;;;18.60;99.90;;;;;;5013673;28;19974;-92
2023/05/14 08:34:16;;;;;;;;;;;18.70;99.90;;;;;;5023690;28;19917;-86
2023/05/14 08:36:47;;;;;;;;;;;20.00;99.90;;;;;;5034365;28;19916;-92
2023/05/14 08:39:13;;;;;;;;;;;20.50;99.90;;;;;;5043753;28;19952;-92
2023/05/14 08:41:39;;;;;;;;;;;19.80;99.90;;;;;;5040383;28;20004;-93
2023/05/14 08:44:08;;;;;;;;;;;19.00;99.90;;;;;;5044635;28;19909;-92
2023/05/14 08:46:35;;;;;;;;;;;18.10;99.90;;;;;;5017172;28;19909;-91
2023/05/14 08:49:19;;;;;;;;;;;17.60;99.90;;;;;;5044465;28;19952;-92
2023/05/14 08:55:14;;;;;;;;;;;17.40;99.90;;;;;;5024101;28;20059;-92
2023/05/14 08:57:39;;;;;;;;;;;17.40;99.90;;;;;;5010125;28;20363;-91
2023/05/14 09:00:10;;;;;;;;;;;17.80;99.90;;;;;;5043071;28;19952;-91
2023/05/14 09:02:38;;;;;;;;;;;18.00;99.90;;;;;;5031635;28;19909;-91
2023/05/14 09:05:03;;;;;;;;;;;18.30;99.90;;;;;;5037182;28;20285;-92
2023/05/14 09:07:29;;;;;;;;;;;18.80;99.90;;;;;;5028916;28;19916;-93
2023/05/14 09:09:55;;;;;;;;;;;18.80;99.90;;;;;;5036706;28;19909;-93
2023/05/14 09:12:21;;;;;;;;;;;18.70;99.90;;;;;;5045563;28;19909;-92
2023/05/14 09:14:47;;;;;;;;;;;19.10;99.90;;;;;;5035356;28;19956;-92
2023/05/14 09:17:13;;;;;;;;;;;19.20;99.90;;;;;;5021794;28;19913;-92
2023/05/14 09:19:48;;;;;;;;;;;19.10;99.90;;;;;;5036434;28;19917;-92
2023/05/14 09:22:14;;;;;;;;;;;18.90;99.90;;;;;;5027950;28;19909;-92
2023/05/14 09:24:40;;;;;;;;;;;18.50;99.90;;;;;;5020696;28;19909;-93
2023/05/14 09:27:06;;;;;;;;;;;18.30;99.90;;;;;;5050566;28;19913;-93
2023/05/14 09:29:33;;;;;;;;;;;18.20;99.90;;;;;;5037625;28;19909;-91
2023/05/14 09:32:01;;;;;;;;;;;18.20;99.90;;;;;;5009691;28;20575;-92
2023/05/14 09:34:27;;;;;;;;;;;18.20;99.90;;;;;;5036457;28;19917;-93
2023/05/14 09:36:55;;;;;;;;;;;18.50;99.90;;;;;;5030856;28;19913;-92
2023/05/14 09:39:22;;;;;;;;;;;18.80;99.90;;;;;;5021620;28;19964;-93
2023/05/14 09:41:48;;;;;;;;;;;18.60;99.90;;;;;;5023463;28;20258;-92
2023/05/14 09:44:13;;;;;;;;;;;18.80;99.90;;;;;;5010939;28;19924;-93
2023/05/14 09:46:39;;;;;;;;;;;18.80;99.90;;;;;;5041719;28;19951;-92
2023/05/14 09:49:05;;;;;;;;;;;18.80;99.90;;;;;;5033113;28;20324;-93
2023/05/14 09:51:31;;;;;;;;;;;18.70;99.90;;;;;;5024944;28;19959;-92
2023/05/14 09:53:56;;;;;;;;;;;18.30;99.90;;;;;;5031393;28;19917;-92
2023/05/14 09:56:22;;;;;;;;;;;18.20;99.90;;;;;;5050485;28;20345;-93
2023/05/14 09:58:48;;;;;;;;;;;18.10;99.90;;;;;;5037382;28;19916;-93
2023/05/14 10:01:16;;;;;;;;;;;18.30;99.90;;;;;;5035744;28;19915;-93
2023/05/14 10:03:42;;;;;;;;;;;18.70;99.90;;;;;;5023839;28;19909;-93
2023/05/14 10:06:09;;;;;;;;;;;18.90;99.90;;;;;;5035057;28;19931;-92
2023/05/14 10:08:40;;;;;;;;;;;18.10;99.90;;;;;;5039289;28;19909;-93
2023/05/14 10:11:07;;;;;;;;;;;17.60;99.90;;;;;;5037102;28;20242;-91
2023/05/14 10:13:38;;;;;;;;;;;17.10;99.90;;;;;;5032929;28;19913;-92
2023/05/14 10:16:09;;;;;;;;;;;16.90;99.90;;;;;;5036900;28;20332;-92
2023/05/14 10:18:39;;;;;;;;;;;16.90;99.90;;;;;;5023129;28;19963;-92
2023/05/14 10:21:25;;;;;;;;;;;16.80;99.90;;;;;;5036606;28;19897;-93
2023/05/14 10:23:51;;;;;;;;;;;16.60;99.90;;;;;;5019552;28;19959;-92
2023/05/14 10:26:16;;;;;;;;;;;16.60;99.90;;;;;;5025107;28;19905;-91
2023/05/14 10:28:42;;;;;;;;;;;16.20;99.90;;;;;;5021268;28;20265;-92
2023/05/14 10:31:08;;;;;;;;;;;16.30;99.90;;;;;;5044151;28;19913;-93
2023/05/14 10:33:49;;;;;;;;;;;16.40;99.90;;;;;;5021666;28;19929;-93
2023/05/14 10:36:15;;;;;;;;;;;16.60;99.90;;;;;;5018356;28;19909;-93
2023/05/14 10:38:40;;;;;;;;;;;16.80;99.90;;;;;;5023783;28;20276;-92
2023/05/14 10:41:09;;;;;;;;;;;17.00;99.90;;;;;;5034302;28;20003;-93
2023/05/14 10:46:40;;;;;;;;;;;16.70;99.90;;;;;;5022477;28;19910;-93
2023/05/14 10:49:06;;;;;;;;;;;16.70;99.90;;;;;;5003639;28;19936;-93
2023/05/14 10:51:32;;;;;;;;;;;16.70;99.90;;;;;;5025699;28;19913;-93
2023/05/14 10:53:59;;;;;;;;;;;16.80;99.90;;;;;;5048888;28;19913;-94
2023/05/14 10:56:25;;;;;;;;;;;16.90;99.90;;;;;;5036158;28;19916;-92
2023/05/14 10:58:51;;;;;;;;;;;16.80;99.90;;;;;;5035583;28;20324;-93
2023/05/14 11:01:16;;;;;;;;;;;16.50;99.90;;;;;;5033381;28;19955;-93
2023/05/14 11:03:43;;;;;;;;;;;16.40;99.90;;;;;;5026222;28;19910;-92
2023/05/14 11:06:10;;;;;;;;;;;16.20;99.90;;;;;;5034754;28;19948;-93
2023/05/14 11:08:36;;;;;;;;;;;16.20;99.90;;;;;;5018349;28;19909;-93
2023/05/14 11:11:01;;;;;;;;;;;16.10;99.90;;;;;;5034092;28;19909;-93
2023/05/14 11:13:27;;;;;;;;;;;16.00;99.90;;;;;;5019102;28;20427;-92
2023/05/14 11:15:54;;;;;;;;;;;15.90;99.90;;;;;;5038529;28;19953;-92
2023/05/14 11:18:27;;;;;;;;;;;15.90;99.90;;;;;;5021587;28;19913;-93
2023/05/14 11:20:56;;;;;;;;;;;16.10;99.90;;;;;;5028905;28;20670;-93
2023/05/14 11:23:23;;;;;;;;;;;16.30;99.90;;;;;;5034425;28;19909;-93
2023/05/14 11:25:50;;;;;;;;;;;16.40;99.90;;;;;;5029969;28;19909;-92
2023/05/14 11:28:16;;;;;;;;;;;16.00;99.90;;;;;;5021859;28;19910;-93
2023/05/14 11:30:42;;;;;;;;;;;16.00;99.90;;;;;;5024890;28;20269;-93
2023/05/14 11:33:07;;;;;;;;;;;16.00;99.90;;;;;;5023539;28;20349;-93
2023/05/14 11:35:35;;;;;;;;;;;16.30;99.90;;;;;;5023059;28;19953;-93
2023/05/14 11:38:04;;;;;;;;;;;16.50;99.90;;;;;;5031940;28;19985;-92
2023/05/14 11:40:29;;;;;;;;;;;16.60;99.90;;;;;;5035740;28;19909;-92
2023/05/14 11:42:55;;;;;;;;;;;16.80;99.90;;;;;;5031419;28;19912;-92
2023/05/14 11:45:28;;;;;;;;;;;17.10;99.90;;;;;;5024342;28;19917;-94
2023/05/14 11:47:54;;;;;;;;;;;16.90;99.90;;;;;;5032011;28;19910;-92
2023/05/14 11:50:20;;;;;;;;;;;16.80;99.90;;;;;;5014849;28;19916;-93
2023/05/14 11:52:49;;;;;;;;;;;16.70;99.90;;;;;;5030122;28;19921;-92
2023/05/14 11:55:15;;;;;;;;;;;16.80;99.90;;;;;;5042970;28;19916;-92
2023/05/14 11:57:41;;;;;;;;;;;17.00;99.90;;;;;;5030726;28;19959;-93
2023/05/14 12:00:08;;;;;;;;;;;17.20;99.90;;;;;;5049586;28;20320;-93
2023/05/14 12:02:33;;;;;;;;;;;17.50;99.90;;;;;;5026864;28;19909;-94
2023/05/14 12:04:59;;;;;;;;;;;17.40;99.90;;;;;;5034310;28;19963;-93
2023/05/14 12:07:28;;;;;;;;;;;17.20;99.90;;;;;;5017555;28;19934;-92
2023/05/14 12:09:53;;;;;;;;;;;17.50;99.90;;;;;;5018927;28;19909;-92
2023/05/14 12:12:20;;;;;;;;;;;17.70;99.90;;;;;;5024710;28;19959;-93
2023/05/14 12:14:46;;;;;;;;;;;18.00;99.90;;;;;;5046922;28;19955;-92
2023/05/14 12:17:15;;;;;;;;;;;17.90;99.90;;;;;;5046108;28;19905;-93
2023/05/14 12:19:41;;;;;;;;;;;18.10;99.90;;;;;;5029610;28;20310;-92
2023/05/14 12:22:08;;;;;;;;;;;18.30;99.90;;;;;;5020878;28;19996;-92
2023/05/14 12:24:33;;;;;;;;;;;18.50;99.90;;;;;;5019787;28;20607;-91
2023/05/14 12:27:00;;;;;;;;;;;18.70;99.90;;;;;;5030854;28;19920;-92
2023/05/14 12:29:26;;;;;;;;;;;18.70;99.90;;;;;;5020215;28;19987;-93
2023/05/14 12:31:51;;;;;;;;;;;18.60;99.90;;;;;;5017422;28;19936;-92
2023/05/14 12:34:17;;;;;;;;;;;18.70;99.90;;;;;;5023491;28;19955;-92
2023/05/14 12:36:43;;;;;;;;;;;18.40;99.90;;;;;;5027937;28;19932;-92
2023/05/14 12:39:09;;;;;;;;;;;18.50;99.90;;;;;;5034934;28;19909;-93
2023/05/14 12:41:35;;;;;;;;;;;18.40;99.90;;;;;;5014253;28;20356;-93
2023/05/14 12:44:04;;;;;;;;;;;18.70;99.90;;;;;;5025221;28;19909;-92
2023/05/14 12:46:30;;;;;;;;;;;18.70;99.90;;;;;;5021693;28;20423;-93
2023/05/14 12:48:55;;;;;;;;;;;18.70;99.90;;;;;;5037758;28;19990;-93
2023/05/14 12:51:22;;;;;;;;;;;19.10;99.90;;;;;;5028496;28;19960;-93
2023/05/14 12:53:48;;;;;;;;;;;19.70;99.90;;;;;;5022077;28;19921;-92
2023/05/14 12:56:13;;;;;;;;;;;19.90;99.90;;;;;;5029435;28;20365;-93
2023/05/14 12:58:39;;;;;;;;;;;20.20;99.90;;;;;;5027615;28;20020;-92
2023/05/14 13:01:05;;;;;;;;;;;20.20;99.90;;;;;;5038371;28;19909;-92
2023/05/14 13:03:31;;;;;;;;;;;20.00;99.90;;;;;;5048994;28;19906;-92
2023/05/14 13:09:26;;;;;;;;;;;21.10;99.90;;;;;;5038736;28;19963;-93
2023/05/14 13:11:52;;;;;;;;;;;21.70;99.90;;;;;;5041898;28;19955;-93
2023/05/14 13:14:18;;;;;;;;;;;21.80;99.90;;;;;;5037729;28;19912;-93
2023/05/14 13:16:43;;;;;;;;;;;21.40;99.90;;;;;;5032877;28;19915;-92
2023/05/14 13:19:09;;;;;;;;;;;20.80;99.90;;;;;;5026509;28;19967;-92
2023/05/14 13:21:35;;;;;;;;;;;20.40;99.90;;;;;;5041142;28;20011;-92
2023/05/14 13:24:00;;;;;;;;;;;20.20;99.90;;;;;;5036051;28;19909;-93
2023/05/14 13:26:27;;;;;;;;;;;20.30;99.90;;;;;;5039490;28;19917;-93
2023/05/14 13:28:52;;;;;;;;;;;20.60;99.90;;;;;;5026891;28;20410;-92
2023/05/14 13:31:18;;;;;;;;;;;20.60;99.90;;;;;;5040001;28;20003;-93
2023/05/14 13:33:44;;;;;;;;;;;20.60;99.90;;;;;;5026871;28;19913;-92
2023/05/14 13:36:10;;;;;;;;;;;20.70;99.90;;;;;;5043003;28;19919;-93
2023/05/14 13:38:36;;;;;;;;;;;21.00;99.90;;;;;;5025163;28;20419;-92
2023/05/14 13:41:02;;;;;;;;;;;20.80;99.90;;;;;;5034147;28;19909;-92
2023/05/14 13:43:29;;;;;;;;;;;20.60;99.90;;;;;;5037982;28;19932;-93
2023/05/14 13:49:23;;;;;;;;;;;19.70;99.90;;;;;;5028813;28;20012;-93
2023/05/14 13:51:49;;;;;;;;;;;19.70;99.90;;;;;;5039580;28;19948;-93
2023/05/14 13:54:15;;;;;;;;;;;20.00;99.90;;;;;;5023607;28;19952;-92
2023/05/14 13:56:40;;;;;;;;;;;20.40;99.90;;;;;;5032485;28;19909;-92
2023/05/14 13:59:06;;;;;;;;;;;20.20;99.90;;;;;;5025748;28;19940;-93
2023/05/14 14:01:32;;;;;;;;;;;20.20;99.90;;;;;;5017944;28;20004;-93
2023/05/14 14:03:57;;;;;;;;;;;20.60;99.90;;;;;;5025817;28;19909;-93
2023/05/14 14:06:24;;;;;;;;;;;21.20;99.90;;;;;;5030993;28;19932;-93
2023/05/14 14:08:50;;;;;;;5.25;3.58;;;22.10;99.90;;;;;;5026691;28;19956;-93
2023/05/14 14:11:16;;;;;;;3.97;3.20;;;22.60;98.60;;;;;;5026702;28;20443;-93
2023/05/14 14:13:42;;;;;;;4.38;2.95;;;22.20;97.20;;;;;;5036206;28;20485;-93
2023/05/14 14:16:09;;;;;;;4.25;3.22;;;21.80;96.60;;;;;;5020883;28;20035;-94
2023/05/14 14:18:35;;;;;;;3.30;3.00;;;21.60;97.50;;;;;;5031405;28;20087;-93
2023/05/14 14:21:01;;;;;;;6.45;3.58;;;21.30;96.10;;;;;;5036148;28;20026;-93
2023/05/14 14:23:27;;;;;;;3.63;3.08;;;21.30;97.50;;;;;;5028848;28;20033;-93
2023/05/14 14:25:56;;;;;;;4.35;3.35;;;21.10;97.20;;;;;;5036420;28;20025;-93
2023/05/14 14:28:22;;;;;;;6.45;3.45;;;20.30;98.80;;;;;;5037094;28;20041;-93
2023/05/14 14:30:48;;;;;;;4.85;3.22;;;19.90;99.90;;;;;;5036501;28;20049;-92
2023/05/14 14:33:14;;;;;;;5.40;3.20;;;20.00;99.90;;;;;;5021399;28;20168;-93
2023/05/14 14:35:52;;;;;;;5.13;3.60;;;20.00;99.90;;;;;;5029813;28;20057;-92
2023/05/14 14:38:18;;;;;;;5.20;3.50;;;19.80;99.90;;;;;;5036552;28;20025;-93
2023/05/14 14:40:45;;;;;;;3.63;3.20;;;19.60;99.90;;;;;;5033420;28;20385;-91
2023/05/14 14:43:10;;;;;;;3.38;3.08;;;19.90;99.90;;;;;;5015988;28;20040;-92